Time;durP1;ratioP1;P1;durP2;ratioP2;P2;SDS_P1;SDS_P2;PMS_P1;PMS_P2;Temp;Humidity;BMP_temperature;BMP_pressure;BME280_temperature;BME280_humidity;BME280_pressure;Samples;Min_cycle;Max_cycle;Signal;HPM_P1;HPM_P2
2024/02/17 00:00:23;;;;;;;;;;;;;;;11.23;100.00;97120.78;5107091;28;20292;-68
2024/02/17 00:02:49;;;;;;;;;;;;;;;11.25;100.00;97120.59;5106709;28;19940;-71
2024/02/17 00:05:15;;;;;;;;;;;;;;;11.22;100.00;97126.25;5106967;28;19939;-68
2024/02/17 00:07:41;;;;;;;;;;;;;;;11.21;100.00;97125.44;5105432;28;19949;-68
2024/02/17 00:10:07;;;;;;;;;;;;;;;11.18;100.00;97112.72;5106070;28;19939;-68
2024/02/17 00:12:32;;;;;;;;;;;;;;;11.15;100.00;97121.81;5105553;28;19945;-68
2024/02/17 00:14:58;;;;;;;;;;;;;;;11.13;100.00;97129.09;5105949;28;19933;-68
2024/02/17 00:17:24;;;;;;;;;;;;;;;11.12;100.00;97132.72;5105040;28;20173;-68
2024/02/17 00:19:50;;;;;;;;;;;;;;;11.12;100.00;97124.03;5106361;28;20020;-77
2024/02/17 00:22:16;;;;;;;;;;;;;;;11.11;100.00;97133.75;5105259;28;19983;-68
2024/02/17 00:24:42;;;;;;;;;;;;;;;11.10;100.00;97128.69;5105743;28;19930;-70
2024/02/17 00:27:09;;;;;;;;;;;;;;;11.10;100.00;97129.47;5106597;28;20233;-68
2024/02/17 00:29:35;;;;;;;;;;;;;;;11.09;100.00;97135.75;5106255;28;19931;-68
2024/02/17 00:32:00;;;;;;;;;;;;;;;11.09;100.00;97137.59;5106391;28;19955;-68
2024/02/17 00:34:26;;;;;;;;;;;;;;;11.06;100.00;97141.41;5104882;28;20297;-69
2024/02/17 00:36:52;;;;;;;;;;;;;;;11.08;100.00;97142.00;5105505;28;19930;-68
2024/02/17 00:39:18;;;;;;;;;;;;;;;11.06;100.00;97146.66;5104149;28;19967;-68
2024/02/17 00:41:45;;;;;;;;;;;;;;;11.05;100.00;97150.31;5106212;28;19966;-68
2024/02/17 00:44:11;;;;;;;;;;;;;;;11.04;100.00;97145.25;5106171;28;19939;-68
2024/02/17 00:46:37;;;;;;;;;;;;;;;11.04;100.00;97150.50;5105338;28;19940;-68
2024/02/17 00:49:03;;;;;;;;;;;;;;;11.02;100.00;97158.56;5104522;28;20223;-67
2024/02/17 00:51:28;;;;;;;;;;;;;;;11.02;100.00;97153.31;5106053;28;19956;-68
2024/02/17 00:53:54;;;;;;;;;;;;;;;11.01;100.00;97154.34;5105955;28;20156;-68
2024/02/17 00:56:23;;;;;;;;;;;;;;;10.99;100.00;97159.00;5104090;28;19943;-78
2024/02/17 00:58:50;;;;;;;;;;;;;;;10.99;100.00;97160.81;5104954;28;20261;-74
2024/02/17 01:01:16;;;;;;;;;;;;;;;10.98;100.00;97162.59;5105058;28;19938;-74
2024/02/17 01:03:42;;;;;;;;;;;;;;;10.96;100.00;97162.81;5105040;28;19946;-74
2024/02/17 01:06:09;;;;;;;;;;;;;;;10.95;100.00;97169.06;5104090;28;20133;-74
2024/02/17 01:08:35;;;;;;;;;;;;;;;10.95;100.00;97163.03;5105429;28;19959;-74
2024/02/17 01:11:01;;;;;;;;;;;;;;;10.95;100.00;97170.91;5104866;28;19941;-73
2024/02/17 01:13:27;;;;;;;;;;;;;;;10.90;100.00;97176.75;5105473;28;19935;-74
2024/02/17 01:15:53;;;;;;;;;;;;;;;10.88;100.00;97176.16;5104808;28;20214;-72
2024/02/17 01:18:18;;;;;;;;;;;;;;;10.87;100.00;97178.97;5105538;28;19943;-71
2024/02/17 01:20:44;;;;;;;;;;;;;;;10.86;100.00;97178.16;5104734;28;19943;-72
2024/02/17 01:23:10;;;;;;;;;;;;;;;10.84;100.00;97177.56;5104952;28;19928;-72
2024/02/17 01:25:36;;;;;;;;;;;;;;;10.82;100.00;97184.03;5104668;28;19998;-72
2024/02/17 01:28:02;;;;;;;;;;;;;;;10.82;100.00;97181.41;5105129;28;20020;-72
2024/02/17 01:30:28;;;;;;;;;;;;;;;10.81;100.00;97177.16;5063122;28;19939;-72
2024/02/17 01:32:53;;;;;;;;;;;;;;;10.81;100.00;97185.81;5062734;28;19997;-68
2024/02/17 01:35:19;;;;;;;;;;;;;;;10.82;100.00;97191.91;5062713;28;20219;-73
2024/02/17 01:37:48;;;;;;;;;;;;;;;10.80;100.00;97183.41;5062975;28;20019;-72
2024/02/17 01:40:16;;;;;;;;;;;;;;;10.79;100.00;97182.59;5062444;28;20135;-72
2024/02/17 01:42:42;;;;;;;;;;;;;;;10.76;100.00;97188.25;5062415;28;19937;-72
2024/02/17 01:45:10;;;;;;;;;;;;;;;10.76;100.00;97191.66;5062545;28;19969;-72
2024/02/17 01:47:37;;;;;;;;;;;;;;;10.75;100.00;97189.25;5061583;28;19941;-72
2024/02/17 01:50:04;;;;;;;;;;;;;;;10.75;100.00;97197.09;5062246;28;19941;-71
2024/02/17 01:52:30;;;;;;;;;;;;;;;10.74;100.00;97196.31;5061534;28;19941;-74
2024/02/17 01:54:57;;;;;;;;;;;;;;;10.73;100.00;97201.75;5022423;28;19946;-77
2024/02/17 01:57:23;;;;;;;;;;;;;;;10.72;100.00;97198.31;5022019;28;20083;-78
2024/02/17 01:59:49;;;;;;;;;;;;;;;10.71;100.00;97201.97;5022231;28;20256;-79
2024/02/17 02:02:15;;;;;;;;;;;;;;;10.72;100.00;97210.63;5038706;28;19936;-78
2024/02/17 02:04:41;;;;;;;;;;;;;;;10.71;100.00;97206.41;5042289;28;19943;-78
2024/02/17 02:07:07;;;;;;;;;;;;;;;10.71;100.00;97212.47;5042664;28;19941;-79
2024/02/17 02:09:33;;;;;;;;;;;;;;;10.70;100.00;97208.22;5042124;28;20012;-78
2024/02/17 02:11:58;;;;;;;;;;;;;;;10.69;100.00;97211.84;5042159;28;19937;-71
2024/02/17 02:14:24;;;;;;;;;;;;;;;10.67;100.00;97210.44;5041779;28;20009;-74
2024/02/17 02:16:50;;;;;;;;;;;;;;;10.65;100.00;97213.25;5042007;28;19975;-75
2024/02/17 02:19:16;;;;;;;;;;;;;;;10.63;100.00;97211.84;5041542;28;19956;-75
2024/02/17 02:21:43;;;;;;;;;;;;;;;10.62;100.00;97216.25;5042525;28;19939;-75
2024/02/17 02:24:09;;;;;;;;;;;;;;;10.63;100.00;97217.91;5041948;28;19942;-75
2024/02/17 02:26:35;;;;;;;;;;;;;;;10.63;100.00;97219.72;5089012;28;19942;-75
2024/02/17 02:29:01;;;;;;;;;;;;;;;10.61;100.00;97224.34;5104391;28;19938;-76
2024/02/17 02:31:29;;;;;;;;;;;;;;;10.62;100.00;97228.56;5103890;28;19948;-72
2024/02/17 02:33:56;;;;;;;;;;;;;;;10.60;100.00;97223.53;5103215;28;19944;-72
2024/02/17 02:36:22;;;;;;;;;;;;;;;10.61;100.00;97226.97;5103247;28;19953;-71
2024/02/17 02:38:48;;;;;;;;;;;;;;;10.60;100.00;97226.16;5103010;28;19962;-72
2024/02/17 02:41:14;;;;;;;;;;;;;;;10.60;100.00;97226.16;5104299;28;19940;-72
2024/02/17 02:43:40;;;;;;;;;;;;;;;10.60;100.00;97227.97;5104284;28;20230;-72
2024/02/17 02:46:07;;;;;;;;;;;;;;;10.59;100.00;97229.78;5104510;28;19938;-72
2024/02/17 02:48:33;;;;;;;;;;;;;;;10.60;100.00;97236.63;5104274;28;19930;-68
2024/02/17 02:50:59;;;;;;;;;;;;;;;10.59;100.00;97237.66;5103929;28;19983;-73
2024/02/17 02:53:24;;;;;;;;;;;;;;;10.59;100.00;97242.91;5103705;28;20223;-73
2024/02/17 02:55:51;;;;;;;;;;;;;;;10.60;100.00;97235.84;5103610;28;19937;-74
2024/02/17 02:58:17;;;;;;;;;;;;;;;10.59;100.00;97244.72;5103577;28;19972;-73
2024/02/17 03:00:43;;;;;;;;;;;;;;;10.57;100.00;97239.66;5104357;28;20180;-73
2024/02/17 03:03:09;;;;;;;;;;;;;;;10.55;100.00;97241.69;5103560;28;19992;-73
2024/02/17 03:05:35;;;;;;;;;;;;;;;10.53;100.00;97257.59;5103145;28;20214;-71
2024/02/17 03:08:01;;;;;;;;;;;;;;;10.51;100.00;97272.72;5103515;28;19953;-77
2024/02/17 03:10:27;;;;;;;;;;;;;;;10.42;100.00;97266.06;5103556;28;19939;-66
2024/02/17 03:12:53;;;;;;;;;;;;;;;10.33;100.00;97272.47;5106310;28;20144;-65
2024/02/17 03:15:19;;;;;;;;;;;;;;;10.21;100.00;97274.00;5107173;28;20253;-65
2024/02/17 03:17:46;;;;;;;;;;;;;;;10.07;100.00;97281.78;5106379;28;19930;-65
2024/02/17 03:20:12;;;;;;;;;;;;;;;9.94;100.00;97277.28;5107472;28;19954;-66
2024/02/17 03:22:37;;;;;;;;;;;;;;;9.86;100.00;97280.06;5107002;28;20023;-65
2024/02/17 03:25:03;;;;;;;;;;;;;;;9.81;100.00;97286.91;5106388;28;19976;-71
2024/02/17 03:27:29;;;;;;;;;;;;;;;9.72;100.00;97289.66;5106142;28;19950;-74
2024/02/17 03:29:55;;;;;;;;;;;;;;;9.66;100.00;97289.59;5106227;28;19939;-73
2024/02/17 03:32:21;;;;;;;;;;;;;;;9.63;100.00;97300.47;5107599;28;20266;-73
2024/02/17 03:34:47;;;;;;;;;;;;;;;9.59;100.00;97301.84;5106731;28;19961;-74
2024/02/17 03:37:13;;;;;;;;;;;;;;;9.51;100.00;97308.03;5107478;28;20277;-74
2024/02/17 03:39:39;;;;;;;;;;;;;;;9.44;100.00;97317.63;5106629;28;20258;-74
2024/02/17 03:42:04;;;;;;;;;;;;;;;9.36;100.00;97318.56;5106604;28;19943;-74
2024/02/17 03:44:30;;;;;;;;;;;;;;;9.29;100.00;97325.56;5107430;28;19938;-72
2024/02/17 03:46:56;;;;;;;;;;;;;;;9.25;100.00;97321.72;5088609;28;19996;-72
2024/02/17 03:49:24;;;;;;;;;;;;;;;9.21;100.00;97330.94;5105807;28;20276;-72
2024/02/17 03:51:50;;;;;;;;;;;;;;;9.20;100.00;97335.34;5107199;28;19938;-71
2024/02/17 03:54:15;;;;;;;;;;;;;;;9.18;100.00;97334.72;5106352;28;19938;-72
2024/02/17 03:56:41;;;;;;;;;;;;;;;9.19;100.00;97338.16;5106377;28;19942;-72
2024/02/17 03:59:07;;;;;;;;;;;;;;;9.20;100.00;97339.75;5063976;28;20044;-73
2024/02/17 04:01:36;;;;;;;;;;;;;;;9.23;100.00;97350.69;5064267;28;19952;-77
2024/02/17 04:04:05;;;;;;;;;;;;;;;9.27;100.00;97356.34;5064907;28;19997;-77
2024/02/17 04:06:31;;;;;;;;;;;;;;;9.30;100.00;97350.72;5063426;28;19965;-77
2024/02/17 04:08:58;;;;;;;;;;;;;;;9.31;100.00;97353.16;5064157;28;19959;-77
2024/02/17 04:11:24;;;;;;;;;;;;;;;9.31;100.00;97363.63;5064039;28;19934;-78
2024/02/17 04:13:50;;;;;;;;;;;;;;;9.31;100.00;97361.03;5064466;28;19944;-78
2024/02/17 04:16:16;;;;;;;;;;;;;;;9.31;100.00;97365.47;5063955;28;20235;-78
2024/02/17 04:18:41;;;;;;;;;;;;;;;9.30;100.00;97369.06;5064063;28;19939;-78
2024/02/17 04:21:07;;;;;;;;;;;;;;;9.29;100.00;97370.88;5064405;28;20118;-71
2024/02/17 04:23:33;;;;;;;;;;;;;;;9.25;100.00;97372.25;5063142;28;20225;-74
2024/02/17 04:26:02;;;;;;;;;;;;;;;9.23;100.00;97376.84;5063748;28;20124;-74
2024/02/17 04:28:28;;;;;;;;;;;;;;;9.20;100.00;97389.50;5063706;28;19954;-75
2024/02/17 04:30:54;;;;;;;;;;;;;;;9.18;100.00;97387.06;5098093;28;20113;-73
2024/02/17 04:33:20;;;;;;;;;;;;;;;9.18;100.00;97386.28;5105670;28;19938;-74
2024/02/17 04:35:45;;;;;;;;;;;;;;;9.19;100.00;97395.72;5106150;28;20208;-74
2024/02/17 04:38:13;;;;;;;;;;;;;;;9.17;100.00;97388.06;5105533;28;20006;-73
2024/02/17 04:40:39;;;;;;;;;;;;;;;9.17;100.00;97397.72;5105432;28;19951;-73
2024/02/17 04:43:05;;;;;;;;;;;;;;;9.17;100.00;97405.56;5106219;28;20253;-73
2024/02/17 04:45:31;;;;;;;;;;;;;;;9.16;100.00;97412.63;5105390;28;19934;-73
2024/02/17 04:47:56;;;;;;;;;;;;;;;9.15;100.00;97413.59;5105580;28;20005;-73
2024/02/17 04:50:22;;;;;;;;;;;;;;;9.16;100.00;97412.63;5104425;28;20278;-74
2024/02/17 04:52:48;;;;;;;;;;;;;;;9.19;100.00;97420.09;5106018;28;20007;-74
2024/02/17 04:55:14;;;;;;;;;;;;;;;9.19;100.00;97414.84;5106043;28;20102;-67
2024/02/17 04:57:40;;;;;;;;;;;;;;;9.19;100.00;97422.72;5105089;28;19961;-69
2024/02/17 05:00:06;;;;;;;;;;;;;;;9.21;100.00;97427.75;5105278;28;19999;-72
2024/02/17 05:02:34;;;;;;;;;;;;;;;9.20;100.00;97418.28;5105363;28;19940;-73
2024/02/17 05:05:00;;;;;;;;;;;;;;;9.18;100.00;97428.94;5105866;28;19935;-72
2024/02/17 05:07:26;;;;;;;;;;;;;;;9.13;100.00;97436.53;5105832;28;19938;-72
2024/02/17 05:09:52;;;;;;;;;;;;;;;9.11;100.00;97441.13;5104915;28;19981;-72
2024/02/17 05:12:18;;;;;;;;;;;;;;;9.09;100.00;97438.72;5105717;28;19983;-72
2024/02/17 05:14:44;;;;;;;;;;;;;;;9.05;100.00;97445.31;5104902;28;19926;-73
2024/02/17 05:17:11;;;;;;;;;;;;;;;9.05;100.00;97441.88;5105328;28;20207;-79
2024/02/17 05:19:37;;;;;;;;;;;;;;;9.03;100.00;97449.09;5105261;28;19954;-78
2024/02/17 05:22:03;;;;;;;;;;;;;;;9.00;100.00;97449.47;5105255;28;19972;-78
2024/02/17 05:24:33;;;;;;;;;;;;;;;9.00;100.00;97449.47;5104853;28;19942;-79
2024/02/17 05:26:59;;;;;;;;;;;;;;;9.00;100.00;97442.41;5105167;28;20223;-78
2024/02/17 05:29:25;;;;;;;;;;;;;;;8.99;100.00;97443.44;5105158;28;19985;-77
2024/02/17 05:31:50;;;;;;;;;;;;;;;8.97;100.00;97458.50;5104576;28;19935;-78
2024/02/17 05:34:19;;;;;;;;;;;;;;;8.98;100.00;97459.31;5104260;28;19995;-77
2024/02/17 05:36:45;;;;;;;;;;;;;;;8.96;100.00;97467.31;5062411;28;19944;-66
2024/02/17 05:39:11;;;;;;;;;;;;;;;8.97;100.00;97463.72;5062555;28;19940;-66
2024/02/17 05:41:37;;;;;;;;;;;;;;;8.96;100.00;97469.13;5062609;28;20196;-66
2024/02/17 05:44:03;;;;;;;;;;;;;;;8.99;100.00;97480.06;5061926;28;19948;-65
2024/02/17 05:46:29;;;;;;;;;;;;;;;9.02;100.00;97481.50;5062803;28;19947;-66
2024/02/17 05:48:54;;;;;;;;;;;;;;;9.00;100.00;97478.25;5063100;28;19964;-66
2024/02/17 05:51:20;;;;;;;;;;;;;;;8.98;100.00;97480.22;5062789;28;19966;-66
2024/02/17 05:53:46;;;;;;;;;;;;;;;8.98;100.00;97485.47;5063063;28;19966;-77
2024/02/17 05:56:12;;;;;;;;;;;;;;;8.97;100.00;97484.66;5062240;28;19935;-79
2024/02/17 05:58:38;;;;;;;;;;;;;;;8.97;100.00;97481.25;5062266;28;19966;-79
2024/02/17 06:01:04;;;;;;;;;;;;;;;8.98;100.00;97488.88;5062648;28;19962;-77
2024/02/17 06:03:32;;;;;;;;;;;;;;;8.99;100.00;97493.16;5062702;28;19940;-79
2024/02/17 06:05:58;;;;;;;;;;;;;;;8.98;100.00;97503.78;5062668;28;19965;-78
2024/02/17 06:08:24;;;;;;;;;;;;;;;8.97;100.00;97502.97;5063649;28;19951;-79
2024/02/17 06:10:50;;;;;;;;;;;;;;;8.97;100.00;97516.06;5063784;28;19974;-72
2024/02/17 06:13:16;;;;;;;;;;;;;;;9.00;100.00;97507.84;5064289;28;19940;-78
2024/02/17 06:15:43;;;;;;;;;;;;;;;9.00;100.00;97512.25;5064248;28;19924;-79
2024/02/17 06:23:38;;;;;;;;;;;;;;;9.01;100.00;97524.34;5064206;28;19930;-78
2024/02/17 06:26:04;;;;;;;;;;;;;;;9.03;100.00;97535.44;5061895;28;20111;-79
2024/02/17 06:28:30;;;;;;;;;;;;;;;9.04;100.00;97537.88;5062207;28;19931;-78
2024/02/17 06:30:55;;;;;;;;;;;;;;;9.06;100.00;97545.56;5062363;28;20224;-67
2024/02/17 06:33:21;;;;;;;;;;;;;;;9.08;100.00;97549.59;5061528;28;19988;-68
2024/02/17 06:35:47;;;;;;;;;;;;;;;9.12;100.00;97552.69;5061996;28;20108;-68
2024/02/17 06:38:16;;;;;;;;;;;;;;;9.14;100.00;97558.56;5061834;28;19936;-68
2024/02/17 06:40:42;;;;;;;;;;;;;;;9.16;100.00;97561.81;5061839;28;19959;-68
2024/02/17 06:43:08;;;;;;;;;;;;;;;9.16;100.00;97567.03;5061739;28;20124;-68
2024/02/17 06:45:34;;;;;;;;;;;;;;;9.19;100.00;97571.09;5062616;28;19967;-68
2024/02/17 06:48:00;;;;;;;;;;;;;;;9.19;100.00;97573.72;5066245;28;19932;-73
2024/02/17 06:50:26;;;;;;;;;;;;;;;9.21;100.00;97576.94;5066437;28;19944;-78
2024/02/17 06:52:52;;;;;;;;;;;;;;;9.21;100.00;97579.56;5065110;28;19942;-79
2024/02/17 06:55:18;;;;;;;;;;;;;;;9.22;100.00;97584.63;5064709;28;20176;-78
2024/02/17 06:57:44;;;;;;;;;;;;;;;9.23;100.00;97583.63;5081084;28;20003;-78
2024/02/17 07:00:10;;;;;;;;;;;;;;;9.22;100.00;97583.81;5106901;28;19961;-78
2024/02/17 07:02:36;;;;;;;;;;;;;;;9.22;100.00;97586.41;5107437;28;20007;-78
2024/02/17 07:05:02;;;;;;;;;;;;;;;9.23;100.00;97590.69;5107367;28;19994;-72
2024/02/17 07:07:28;;;;;;;;;;;;;;;9.25;100.00;97592.09;5107900;28;20206;-73
2024/02/17 07:09:54;;;;;;;;;;;;;;;9.27;100.00;97595.34;5107234;28;19960;-73
2024/02/17 07:12:19;;;;;;;;;;;;;;;9.31;100.00;97595.81;5106796;28;19980;-73
2024/02/17 07:14:45;;;;;;;;;;;;;;;9.34;100.00;97608.53;5106164;28;20276;-73
2024/02/17 07:17:11;;;;;;;;;;;;;;;9.33;100.00;97609.53;5107943;28;20233;-74
2024/02/17 07:19:37;;;;;;;;;;;;;;;9.35;100.00;97612.78;5107532;28;19990;-73
2024/02/17 07:22:08;;;;;;;;;;;;;;;9.35;100.00;97615.41;5089851;28;20280;-73
2024/02/17 07:24:34;;;;;;;;;;;;;;;9.38;100.00;97624.69;5107855;28;19932;-73
2024/02/17 07:26:59;;;;;;;;;;;;;;;9.37;100.00;97629.13;5106986;28;19940;-66
2024/02/17 07:29:25;;;;;;;;;;;;;;;9.37;100.00;97634.38;5107415;28;20157;-66
2024/02/17 07:31:51;;;;;;;;;;;;;;;9.34;100.00;97635.56;5106862;28;19961;-67
2024/02/17 07:34:17;;;;;;;;;;;;;;;9.31;100.00;97635.88;5106129;28;20222;-67
2024/02/17 07:36:43;;;;;;;;;;;;;;;9.29;100.00;97645.72;5106773;28;19972;-66
2024/02/17 07:39:09;;;;;;;;;;;;;;;9.28;100.00;97649.34;5107292;28;20350;-66
2024/02/17 07:41:34;;;;;;;;;;;;;;;9.28;100.00;97657.22;5106621;28;19957;-71
2024/02/17 07:44:00;;;;;;;;;;;;;;;9.29;100.00;97666.66;5107448;28;19977;-67
2024/02/17 07:46:26;;;;;;;;;;;;;;;9.30;100.00;97670.09;5105972;28;19980;-72
2024/02/17 07:48:52;;;;;;;;;;;;;;;9.30;100.00;97675.34;5106565;28;20239;-73
2024/02/17 07:51:18;;;;;;;;;;;;;;;9.30;100.00;97676.16;5106532;28;20216;-72
2024/02/17 07:53:44;;;;;;;;;;;;;;;9.32;100.00;97681.19;5106088;28;20075;-72
2024/02/17 07:56:10;;;;;;;;;;;;;;;9.34;100.00;97684.47;5106364;28;19938;-72
2024/02/17 07:58:36;;;;;;;;;;;;;;;9.34;100.00;97681.84;5105591;28;20153;-72
2024/02/17 08:01:02;;;;;;;;;;;;;;;9.29;100.00;97686.81;5106747;28;20200;-68
2024/02/17 08:03:28;;;;;;;;;;;;;;;9.26;100.00;97695.84;5105577;28;20318;-72
2024/02/17 08:05:54;;;;;;;;;;;;;;;9.25;100.00;97694.19;5105163;28;19934;-72
2024/02/17 08:08:20;;;;;;;;;;;;;;;9.26;100.00;97692.38;5106104;28;19970;-72
2024/02/17 08:10:46;;;;;;;;;;;;;;;9.25;100.00;97701.25;5106625;28;19931;-72
2024/02/17 08:13:12;;;;;;;;;;;;;;;9.24;100.00;97703.06;5106019;28;19990;-73
2024/02/17 08:15:38;;;;;;;;;;;;;;;9.26;100.00;97702.84;5105310;28;19946;-72
2024/02/17 08:18:04;;;;;;;;;;;;;;;9.27;100.00;97710.53;5105954;28;19955;-78
2024/02/17 08:20:30;;;;;;;;;;;;;;;9.29;100.00;97713.78;5106417;28;19967;-77
2024/02/17 08:22:57;;;;;;;;;;;;;;;9.32;100.00;97710.84;5105860;28;19941;-73
2024/02/17 08:25:24;;;;;;;;;;;;;;;9.36;100.00;97713.88;5105842;28;19930;-73
2024/02/17 08:27:50;;;;;;;;;;;;;;;9.43;100.00;97717.44;5106309;28;19930;-73
2024/02/17 08:30:16;;;;;;;;;;;;;;;9.49;100.00;97715.88;5106289;28;19946;-73
2024/02/17 08:32:41;;;;;;;;;;;;;;;9.50;100.00;97720.94;5105786;28;19966;-73
2024/02/17 08:35:07;;;;;;;;;;;;;;;9.54;100.00;97719.59;5106420;28;20028;-73
2024/02/17 08:37:33;;;;;;;;;;;;;;;9.57;100.00;97725.47;5105906;28;20005;-73
2024/02/17 08:39:59;;;;;;;;;;;;;;;9.62;100.00;97728.38;5105502;28;19994;-73
2024/02/17 08:42:25;;;;;;;;;;;;;;;9.70;100.00;97730.88;5106307;28;20076;-73
2024/02/17 08:44:54;;;;;;;;;;;;;;;9.80;100.00;97738.50;5105455;28;19938;-73
2024/02/17 08:47:21;;;;;;;;;;;;;;;9.91;100.00;97731.00;5105905;28;19930;-73
2024/02/17 08:49:47;;;;;;;;;;;;;;;10.05;100.00;97733.78;5106174;28;20100;-73
2024/02/17 08:52:13;;;;;;;;;;;;;;;10.20;100.00;97737.19;5105280;28;20123;-73
2024/02/17 08:54:38;;;;;;;;;;;;;;;10.36;100.00;97747.50;5105288;28;19967;-78
2024/02/17 08:57:04;;;;;;;;;;;;;;;10.40;100.00;97739.28;5105815;28;19977;-72
2024/02/17 08:59:31;;;;;;;;;;;;;;;10.39;100.00;97746.31;5105205;28;19956;-73
2024/02/17 09:01:57;;;;;;;;;;;;;;;10.32;100.00;97748.06;5105506;28;19934;-73
2024/02/17 09:04:23;;;;;;;;;;;;;;;10.26;100.00;97748.75;5105100;28;19936;-73
2024/02/17 09:06:49;;;;;;;;;;;;;;;10.22;100.00;97758.78;5087728;28;20213;-73
2024/02/17 09:09:15;;;;;;;;;;;;;;;10.20;100.00;97763.41;5104272;28;20016;-73
2024/02/17 09:11:40;;;;;;;;;;;;;;;10.21;100.00;97753.75;5105503;28;20183;-73
2024/02/17 09:14:06;;;;;;;;;;;;;;;10.23;100.00;97757.00;5103927;28;19944;-73
2024/02/17 09:16:32;;;;;;;;;;;;;;;10.28;100.00;97773.78;5104924;28;20097;-72
2024/02/17 09:18:58;;;;;;;;;;;;;;;10.32;100.00;97774.28;5104803;28;19976;-72
2024/02/17 09:21:24;;;;;;;;;;;;;;;10.39;100.00;97775.16;5104655;28;20246;-72
2024/02/17 09:23:49;;;;;;;;;;;;;;;10.48;100.00;97784.56;5104719;28;19939;-72
2024/02/17 09:26:15;;;;;;;;;;;;;;;10.52;100.00;97782.38;5104713;28;20118;-72
2024/02/17 09:28:41;;;;;;;;;;;;;;;10.58;100.00;97789.50;5105190;28;19944;-72
2024/02/17 09:31:07;;;;;;;;;;;;;;;10.75;100.00;97787.47;5104567;28;19938;-72
2024/02/17 09:33:33;;;;;;;;;;;;;;;11.07;100.00;97785.38;5104582;28;19963;-68
2024/02/17 09:35:59;;;;;;;;;;;;;;;11.65;100.00;97770.28;5104560;28;20223;-74
2024/02/17 09:38:25;;;;;;;;;;;;;;;12.18;100.00;97786.41;5104519;28;19936;-74
2024/02/17 09:40:51;;;;;;;;;;;;;;;12.69;100.00;97771.22;5105217;28;20021;-76
2024/02/17 09:43:17;;;;;;;;;;;;;;;13.11;100.00;97777.16;5104449;28;19938;-75
2024/02/17 09:45:43;;;;;;;;;;;;;;;13.44;100.00;97750.88;5104637;28;19940;-74
2024/02/17 09:48:10;;;;;;;;;;;;;;;13.65;100.00;97722.66;5104858;28;19943;-75
2024/02/17 09:50:36;;;;;;;;;;;;;;;13.79;100.00;97746.13;5104312;28;19971;-67
2024/02/17 09:53:02;;;;;;;;;;;;;;;14.04;100.00;97744.66;5104260;28;19937;-67
2024/02/17 09:55:30;;;;;;;;;;;;;;;14.31;100.00;97714.53;5104732;28;20009;-78
2024/02/17 09:57:57;;;;;;;;;;;;;;;14.53;100.00;97693.91;5103991;28;19965;-78
2024/02/17 10:00:23;;;;;;;;;;;;;;;14.73;100.00;97740.53;5104127;28;19958;-78
2024/02/17 10:02:51;;;;;;;;;;;;;;;14.89;100.00;97740.03;5104987;28;19934;-78
2024/02/17 10:05:20;;;;;;;;;;;;;;;14.99;100.00;97721.03;5104141;28;20236;-78
2024/02/17 10:07:55;;;;;;;;;;;;;;;15.01;100.00;97726.94;5104045;28;19947;-78
2024/02/17 10:10:22;;;;;;;;;;;;;;;15.17;100.00;97704.47;5104132;28;19936;-69
2024/02/17 10:12:51;;;;;;;;;;;;;;;15.33;100.00;97680.13;5104082;28;19942;-73
2024/02/17 10:15:17;;;;;;;;;;;;;;;15.51;100.00;97684.63;5104286;28;19937;-73
2024/02/17 10:17:43;;;;;;;;;;;;;;;15.31;100.00;97654.94;5104030;28;19930;-74
2024/02/17 10:20:10;;;;;;;;;;;;;;;15.00;100.00;97696.25;5104080;28;20300;-74
2024/02/17 10:22:36;;;;;;;;;;;;;;;14.90;93.08;97622.78;5108244;28;20211;-73
2024/02/17 10:25:02;;;;;;;;;;;;;;;14.87;94.27;97657.56;5108111;28;20221;-73
2024/02/17 10:27:29;;;;;;;;;;;;;;;14.96;100.00;97708.28;5090160;28;19962;-68
2024/02/17 10:30:07;;;;;;;;;;;;;;;14.74;97.30;97676.13;5107986;28;20188;-68
2024/02/17 10:32:33;;;;;;;;;;;;;;;14.31;94.28;97658.31;5090723;28;19942;-77
2024/02/17 10:35:01;;;;;;;;;;;;;;;13.91;100.00;97695.41;5108019;28;20236;-78
2024/02/17 10:37:28;;;;;;;;;;;;;;;13.93;100.00;97707.38;5107930;28;19939;-78
2024/02/17 10:39:54;;;;;;;;;;;;;;;14.10;98.93;97699.00;5090561;28;20108;-78
2024/02/17 10:42:19;;;;;;;;;;;;;;;14.21;92.57;97659.59;5108384;28;20227;-78
2024/02/17 10:44:45;;;;;;;;;;;;;;;14.35;89.86;97635.75;5106869;28;19943;-77
2024/02/17 10:47:11;;;;;;;;;;;;;;;14.27;96.17;97704.59;5108311;28;19936;-67
2024/02/17 10:49:43;;;;;;;;;;;;;;;14.41;92.72;97700.88;5107725;28;19933;-69
2024/02/17 10:52:10;;;;;;;;;;;;;;;14.76;98.89;97703.13;5107674;28;19937;-69
2024/02/17 10:54:53;;;;;;;;;;;;;;;15.19;97.97;97682.06;5107620;28;19954;-69
2024/02/17 10:57:21;;;;;;;;;;;;;;;15.61;88.89;97645.25;5108221;28;20249;-69
2024/02/17 10:59:51;;;;;;;;;;;;;;;15.88;85.83;97629.13;5107532;28;20250;-69
2024/02/17 11:02:18;;;;;;;;;;;;;;;16.23;88.07;97625.78;5107351;28;19979;-69
2024/02/17 11:04:44;;;;;;;;;;;;;;;16.28;90.02;97672.78;5107418;28;19935;-78
2024/02/17 11:07:11;;;;;;;;;;;;;;;15.98;81.48;97642.63;5107334;28;19927;-72
2024/02/17 11:09:37;;;;;;;;;;;;;;;15.46;90.12;97687.13;5107262;28;19953;-72
2024/02/17 11:12:21;;;;;;;;;;;;;;;15.01;88.01;97666.16;5107275;28;19928;-72
2024/02/17 11:14:47;;;;;;;;;;;;;;;14.71;90.66;97697.69;5107204;28;19946;-72
2024/02/17 11:17:13;;;;;;;;;;;;;;;14.61;95.01;97709.53;5107190;28;19933;-73
2024/02/17 11:19:39;;;;;;;;;;;;;;;14.88;98.58;97721.75;5107673;28;20007;-72
2024/02/17 11:22:06;;;;;;;;;;;;;;;15.25;93.53;97703.38;5107245;28;19949;-68
2024/02/17 11:24:35;;;;;;;;;;;;;;;15.58;94.54;97703.06;5107056;28;19935;-78
2024/02/17 11:27:01;;;;;;;;;;;;;;;15.72;85.82;97646.38;5106997;28;20222;-68
2024/02/17 11:29:32;;;;;;;;;;;;;;;16.05;88.60;97662.91;5106950;28;19980;-67
2024/02/17 11:32:02;;;;;;;;;;;;;;;16.22;80.46;97661.25;5106032;28;19940;-68
2024/02/17 11:34:28;;;;;;;;;;;;;;;16.30;75.83;97732.41;5106821;28;20217;-66
2024/02/17 11:36:57;;;;;;;;;;;;;;;16.35;85.47;97768.81;5106782;28;19930;-68
2024/02/17 11:39:29;;;;;;;;;;;;;;;16.43;80.03;97763.22;5106743;28;19937;-67
2024/02/17 11:41:56;;;;;;;;;;;;;;;16.11;88.72;97789.84;5106653;28;20141;-74
2024/02/17 11:44:21;;;;;;;;;;;;;;;15.51;82.48;97787.72;5106654;28;20270;-67
2024/02/17 11:46:47;;;;;;;;;;;;;;;15.05;84.29;97796.81;5106589;28;19932;-67
2024/02/17 11:49:21;;;;;;;;;;;;;;;14.74;87.52;97802.88;5107311;28;19940;-67
2024/02/17 11:51:47;;;;;;;;;;;;;;;14.78;92.89;97814.63;5055473;28;19933;-67
2024/02/17 11:54:16;;;;;;;;;;;;;;;14.95;88.55;97802.56;5106491;28;20135;-67
2024/02/17 11:56:42;;;;;;;;;;;;;;;14.78;83.84;97793.50;5106455;28;20130;-67
2024/02/17 11:59:09;;;;;;;;;;;;;;;14.49;90.07;97802.75;5106493;28;20123;-80
2024/02/17 12:01:35;;;;;;;;;;;;;;;14.25;89.04;97804.28;5106319;28;20001;-72
2024/02/17 12:04:02;;;;;;;;;;;;;;;14.14;90.04;97803.09;5107044;28;19944;-80
2024/02/17 12:06:28;;;;;;;;;;;;;;;14.33;78.11;97765.25;5107149;28;19932;-80
2024/02/17 12:08:54;;;;;;;;;;;;;;;14.69;85.26;97802.72;5105982;28;19968;-81
2024/02/17 12:11:20;;;;;;;;;;;;;;;15.02;85.55;97784.03;5105998;28;19933;-80
2024/02/17 12:13:47;;;;;;;;;;;;;;;15.24;83.66;97787.13;5106003;28;19935;-81
2024/02/17 12:16:13;;;;;;;;;;;;;;;15.47;83.08;97783.91;5105904;28;20246;-81
2024/02/17 12:18:39;;;;;;;;;;;;;;;15.63;81.15;97793.13;5105844;28;19964;-74
2024/02/17 12:21:10;;;;;;;;;;;;;;;15.67;84.74;97793.53;5105905;28;19958;-69
2024/02/17 12:23:37;;;;;;;;;;;;;;;15.57;78.28;97783.41;5106652;28;19935;-69
2024/02/17 12:26:04;;;;;;;;;;;;;;;15.57;82.36;97807.22;5106073;28;19940;-69
2024/02/17 12:28:31;;;;;;;;;;;;;;;15.51;81.25;97808.88;5087790;28;20135;-69
2024/02/17 12:30:58;;;;;;;;;;;;;;;15.41;79.74;97809.38;5105726;28;19934;-69
2024/02/17 12:33:24;;;;;;;;;;;;;;;15.41;83.28;97816.47;5105677;28;19942;-68
2024/02/17 12:35:50;;;;;;;;;;;;;;;15.53;80.93;97816.59;5105639;28;19932;-80
2024/02/17 12:38:20;;;;;;;;;;;;;;;15.68;80.18;97814.44;5106423;28;19940;-69
2024/02/17 12:40:46;;;;;;;;;;;;;;;15.80;75.00;97801.34;5105486;28;19949;-79
2024/02/17 12:43:20;;;;;;;;;;;;;;;15.67;75.73;97810.19;5105386;28;19942;-79